sensor_id;sensor_type;location;lat;lon;timestamp;pressure;altitude;pressure_sealevel;temperature;humidity
74958;BME280;63741;42.624;26.276;2023-03-01T00:01:28;100547.03;;;6.88;82.27
74958;BME280;63741;42.624;26.276;2023-03-01T00:03:56;100542.84;;;6.83;83.98
74958;BME280;63741;42.624;26.276;2023-03-01T00:06:24;100546.38;;;6.82;82.92
74958;BME280;63741;42.624;26.276;2023-03-01T00:08:51;100549.56;;;6.89;82.61
74958;BME280;63741;42.624;26.276;2023-03-01T00:13:48;100542.81;;;6.65;83.20
74958;BME280;63741;42.624;26.276;2023-03-01T00:16:18;100539.97;;;6.69;82.75
74958;BME280;63741;42.624;26.276;2023-03-01T00:18:45;100547.22;;;6.83;82.36
74958;BME280;63741;42.624;26.276;2023-03-01T00:21:12;100546.38;;;6.82;82.10
74958;BME280;63741;42.624;26.276;2023-03-01T00:23:40;100550.00;;;6.80;82.34
74958;BME280;63741;42.624;26.276;2023-03-01T00:26:12;100555.81;;;6.87;81.76
74958;BME280;63741;42.624;26.276;2023-03-01T00:28:39;100559.47;;;6.84;82.18
74958;BME280;63741;42.624;26.276;2023-03-01T00:31:09;100558.03;;;6.77;82.01
74958;BME280;63741;42.624;26.276;2023-03-01T00:33:37;100554.84;;;6.70;83.04
74958;BME280;63741;42.624;26.276;2023-03-01T00:36:04;100560.44;;;6.81;82.47
74958;BME280;63741;42.624;26.276;2023-03-01T00:38:38;100559.91;;;6.75;82.08
74958;BME280;63741;42.624;26.276;2023-03-01T00:41:10;100545.69;;;6.79;83.03
74958;BME280;63741;42.624;26.276;2023-03-01T00:43:38;100545.03;;;6.74;82.63
74958;BME280;63741;42.624;26.276;2023-03-01T00:46:07;100545.47;;;6.83;83.23
74958;BME280;63741;42.624;26.276;2023-03-01T00:48:35;100548.09;;;6.83;81.97
74958;BME280;63741;42.624;26.276;2023-03-01T00:51:21;100555.97;;;6.83;82.72
74958;BME280;63741;42.624;26.276;2023-03-01T00:53:50;100553.19;;;6.87;83.54
74958;BME280;63741;42.624;26.276;2023-03-01T00:56:18;100552.28;;;6.88;82.88
74958;BME280;63741;42.624;26.276;2023-03-01T00:58:45;100548.41;;;6.95;83.84
74958;BME280;63741;42.624;26.276;2023-03-01T01:01:21;100549.13;;;6.98;82.83
74958;BME280;63741;42.624;26.276;2023-03-01T01:03:55;100539.53;;;6.97;83.06
74958;BME280;63741;42.624;26.276;2023-03-01T01:06:23;100535.13;;;6.98;83.69
74958;BME280;63741;42.624;26.276;2023-03-01T01:08:51;100535.75;;;7.03;83.26
74958;BME280;63741;42.624;26.276;2023-03-01T01:11:19;100535.97;;;6.98;84.88
74958;BME280;63741;42.624;26.276;2023-03-01T01:13:47;100533.03;;;7.04;83.25
74958;BME280;63741;42.624;26.276;2023-03-01T01:16:15;100522.59;;;7.03;83.28
74958;BME280;63741;42.624;26.276;2023-03-01T01:18:43;100526.16;;;7.02;82.91
74958;BME280;63741;42.624;26.276;2023-03-01T01:21:13;100533.34;;;6.98;84.41
74958;BME280;63741;42.624;26.276;2023-03-01T01:23:42;100538.47;;;7.01;83.16
74958;BME280;63741;42.624;26.276;2023-03-01T01:26:12;100528.78;;;7.02;83.47
74958;BME280;63741;42.624;26.276;2023-03-01T01:28:39;100519.03;;;7.04;83.42
74958;BME280;63741;42.624;26.276;2023-03-01T01:31:07;100522.47;;;7.06;83.65
74958;BME280;63741;42.624;26.276;2023-03-01T01:33:34;100526.00;;;7.05;83.68
74958;BME280;63741;42.624;26.276;2023-03-01T01:36:01;100526.22;;;7.00;84.71
74958;BME280;63741;42.624;26.276;2023-03-01T01:38:28;100526.00;;;7.05;83.60
74958;BME280;63741;42.624;26.276;2023-03-01T01:40:55;100528.00;;;7.00;83.57
74958;BME280;63741;42.624;26.276;2023-03-01T01:43:25;100534.28;;;6.97;83.00
74958;BME280;63741;42.624;26.276;2023-03-01T01:45:59;100527.00;;;7.02;82.69
74958;BME280;63741;42.624;26.276;2023-03-01T01:48:41;100520.69;;;7.06;82.87
74958;BME280;63741;42.624;26.276;2023-03-01T01:51:14;100519.59;;;7.11;82.92
74958;BME280;63741;42.624;26.276;2023-03-01T01:53:44;100525.09;;;7.06;83.30
74958;BME280;63741;42.624;26.276;2023-03-01T01:56:15;100517.19;;;7.06;82.38
74958;BME280;63741;42.624;26.276;2023-03-01T01:58:43;100516.78;;;6.96;82.96
74958;BME280;63741;42.624;26.276;2023-03-01T02:01:11;100512.78;;;7.06;82.17
74958;BME280;63741;42.624;26.276;2023-03-01T02:03:39;100511.63;;;7.12;82.67
74958;BME280;63741;42.624;26.276;2023-03-01T02:06:19;100506.59;;;7.07;82.30
74958;BME280;63741;42.624;26.276;2023-03-01T02:08:49;100506.03;;;7.01;82.29
74958;BME280;63741;42.624;26.276;2023-03-01T02:11:20;100506.81;;;7.03;82.54
74958;BME280;63741;42.624;26.276;2023-03-01T02:13:48;100498.13;;;7.01;83.12
74958;BME280;63741;42.624;26.276;2023-03-01T02:16:15;100496.56;;;6.79;83.50
74958;BME280;63741;42.624;26.276;2023-03-01T02:18:43;100496.66;;;6.95;82.48
74958;BME280;63741;42.624;26.276;2023-03-01T02:23:48;100474.88;;;6.57;85.00
74958;BME280;63741;42.624;26.276;2023-03-01T02:28:51;100477.31;;;6.79;84.40
74958;BME280;63741;42.624;26.276;2023-03-01T02:31:20;100470.06;;;6.84;83.30
74958;BME280;63741;42.624;26.276;2023-03-01T02:34:08;100483.47;;;6.97;83.52
74958;BME280;63741;42.624;26.276;2023-03-01T02:36:39;100491.97;;;7.02;81.50
74958;BME280;63741;42.624;26.276;2023-03-01T02:39:07;100491.19;;;7.00;81.05
74958;BME280;63741;42.624;26.276;2023-03-01T02:41:44;100486.38;;;6.91;80.79
74958;BME280;63741;42.624;26.276;2023-03-01T02:44:13;100494.44;;;7.05;79.92
74958;BME280;63741;42.624;26.276;2023-03-01T02:46:52;100488.94;;;6.92;80.55
74958;BME280;63741;42.624;26.276;2023-03-01T02:49:27;100494.44;;;6.88;79.14
74958;BME280;63741;42.624;26.276;2023-03-01T02:54:43;100493.09;;;6.96;81.19
74958;BME280;63741;42.624;26.276;2023-03-01T02:57:15;100490.88;;;6.89;80.71
74958;BME280;63741;42.624;26.276;2023-03-01T02:59:42;100488.84;;;6.94;81.27
74958;BME280;63741;42.624;26.276;2023-03-01T03:02:28;100501.69;;;7.00;79.84
74958;BME280;63741;42.624;26.276;2023-03-01T03:05:12;100501.78;;;6.98;81.28
74958;BME280;63741;42.624;26.276;2023-03-01T03:07:42;100496.66;;;6.95;81.20
74958;BME280;63741;42.624;26.276;2023-03-01T03:10:14;100501.06;;;6.95;81.21
74958;BME280;63741;42.624;26.276;2023-03-01T03:12:41;100497.16;;;7.03;81.12
74958;BME280;63741;42.624;26.276;2023-03-01T03:15:10;100485.69;;;7.04;80.81
74958;BME280;63741;42.624;26.276;2023-03-01T03:17:41;100496.28;;;7.03;81.26
74958;BME280;63741;42.624;26.276;2023-03-01T03:20:13;100494.59;;;7.02;81.27
74958;BME280;63741;42.624;26.276;2023-03-01T03:22:52;100492.59;;;7.07;81.05
74958;BME280;63741;42.624;26.276;2023-03-01T03:25:20;100493.53;;;7.06;81.90
74958;BME280;63741;42.624;26.276;2023-03-01T03:27:50;100504.81;;;7.08;80.92
74958;BME280;63741;42.624;26.276;2023-03-01T03:30:29;100505.88;;;7.04;80.78
74958;BME280;63741;42.624;26.276;2023-03-01T03:32:57;100505.66;;;7.08;79.55
74958;BME280;63741;42.624;26.276;2023-03-01T03:35:29;100501.41;;;7.06;79.49
74958;BME280;63741;42.624;26.276;2023-03-01T03:37:59;100503.25;;;7.04;80.39
74958;BME280;63741;42.624;26.276;2023-03-01T03:40:35;100492.44;;;7.10;80.94
74958;BME280;63741;42.624;26.276;2023-03-01T03:43:08;100494.06;;;7.13;79.98
74958;BME280;63741;42.624;26.276;2023-03-01T03:45:54;100487.09;;;7.12;81.45
74958;BME280;63741;42.624;26.276;2023-03-01T03:48:20;100492.00;;;7.19;79.84
74958;BME280;63741;42.624;26.276;2023-03-01T03:50:49;100489.66;;;7.13;80.98
74958;BME280;63741;42.624;26.276;2023-03-01T03:53:18;100483.31;;;7.17;80.33
74958;BME280;63741;42.624;26.276;2023-03-01T03:55:45;100489.34;;;7.19;80.46
74958;BME280;63741;42.624;26.276;2023-03-01T04:01:37;100483.31;;;7.17;80.51
74958;BME280;63741;42.624;26.276;2023-03-01T04:04:04;100478.50;;;7.08;79.61
74958;BME280;63741;42.624;26.276;2023-03-01T04:06:31;100479.66;;;7.02;80.59
74958;BME280;63741;42.624;26.276;2023-03-01T04:08:58;100482.16;;;7.05;79.85
74958;BME280;63741;42.624;26.276;2023-03-01T04:11:28;100484.56;;;7.10;80.58
74958;BME280;63741;42.624;26.276;2023-03-01T04:13:57;100477.75;;;7.23;78.72
74958;BME280;63741;42.624;26.276;2023-03-01T04:16:25;100478.13;;;7.16;78.36
74958;BME280;63741;42.624;26.276;2023-03-01T04:18:52;100474.66;;;7.15;80.35
74958;BME280;63741;42.624;26.276;2023-03-01T04:21:20;100471.69;;;7.21;79.60
74958;BME280;63741;42.624;26.276;2023-03-01T04:23:47;100476.34;;;6.99;79.80
74958;BME280;63741;42.624;26.276;2023-03-01T04:26:14;100483.44;;;7.14;79.45
74958;BME280;63741;42.624;26.276;2023-03-01T04:28:42;100478.19;;;7.14;79.08
74958;BME280;63741;42.624;26.276;2023-03-01T04:31:14;100472.31;;;7.26;77.74
74958;BME280;63741;42.624;26.276;2023-03-01T04:36:11;100470.53;;;7.44;76.23
74958;BME280;63741;42.624;26.276;2023-03-01T04:38:39;100471.69;;;7.21;77.87
74958;BME280;63741;42.624;26.276;2023-03-01T04:41:09;100470.25;;;7.16;76.82
74958;BME280;63741;42.624;26.276;2023-03-01T04:43:36;100469.06;;;7.04;77.33
74958;BME280;63741;42.624;26.276;2023-03-01T04:46:05;100463.34;;;7.13;77.49
74958;BME280;63741;42.624;26.276;2023-03-01T04:48:36;100463.50;;;7.27;76.36
74958;BME280;63741;42.624;26.276;2023-03-01T04:51:04;100462.41;;;7.14;76.25
74958;BME280;63741;42.624;26.276;2023-03-01T04:53:32;100466.06;;;7.12;76.89
74958;BME280;63741;42.624;26.276;2023-03-01T04:55:59;100461.28;;;7.20;76.00
74958;BME280;63741;42.624;26.276;2023-03-01T04:58:27;100464.72;;;7.03;77.28
74958;BME280;63741;42.624;26.276;2023-03-01T05:00:55;100467.97;;;7.08;76.67
74958;BME280;63741;42.624;26.276;2023-03-01T05:03:22;100465.97;;;7.13;77.88
74958;BME280;63741;42.624;26.276;2023-03-01T05:05:51;100459.34;;;7.23;75.92
74958;BME280;63741;42.624;26.276;2023-03-01T05:08:19;100457.59;;;7.40;74.07
74958;BME280;63741;42.624;26.276;2023-03-01T05:10:52;100466.81;;;7.48;75.69
74958;BME280;63741;42.624;26.276;2023-03-01T05:13:20;100458.53;;;7.21;75.24
74958;BME280;63741;42.624;26.276;2023-03-01T05:15:56;100466.28;;;7.07;75.96
74958;BME280;63741;42.624;26.276;2023-03-01T05:18:25;100463.19;;;7.16;75.66
74958;BME280;63741;42.624;26.276;2023-03-01T05:21:03;100472.78;;;7.17;75.95
74958;BME280;63741;42.624;26.276;2023-03-01T05:23:32;100463.81;;;7.21;75.74
74958;BME280;63741;42.624;26.276;2023-03-01T05:26:03;100470.75;;;7.22;74.51
74958;BME280;63741;42.624;26.276;2023-03-01T05:28:33;100471.63;;;7.23;75.63
74958;BME280;63741;42.624;26.276;2023-03-01T05:31:00;100473.09;;;7.11;76.01
74958;BME280;63741;42.624;26.276;2023-03-01T05:33:27;100475.41;;;7.17;76.07
74958;BME280;63741;42.624;26.276;2023-03-01T05:35:54;100473.03;;;7.30;75.51
74958;BME280;63741;42.624;26.276;2023-03-01T05:38:21;100467.66;;;7.31;74.98
74958;BME280;63741;42.624;26.276;2023-03-01T05:40:49;100483.63;;;7.11;77.07
74958;BME280;63741;42.624;26.276;2023-03-01T05:43:16;100486.28;;;7.28;75.37
74958;BME280;63741;42.624;26.276;2023-03-01T05:45:44;100495.75;;;7.14;76.87
74958;BME280;63741;42.624;26.276;2023-03-01T05:48:12;100496.53;;;7.16;76.24
74958;BME280;63741;42.624;26.276;2023-03-01T05:50:41;100494.00;;;7.31;75.39
74958;BME280;63741;42.624;26.276;2023-03-01T05:53:14;100494.63;;;7.19;75.23
74958;BME280;63741;42.624;26.276;2023-03-01T05:55:42;100498.78;;;7.06;76.63
74958;BME280;63741;42.624;26.276;2023-03-01T05:58:12;100485.56;;;7.25;76.12
74958;BME280;63741;42.624;26.276;2023-03-01T06:00:42;100491.75;;;7.24;75.09
74958;BME280;63741;42.624;26.276;2023-03-01T06:03:11;100490.84;;;7.42;74.70
74958;BME280;63741;42.624;26.276;2023-03-01T06:05:39;100492.53;;;7.26;75.96
74958;BME280;63741;42.624;26.276;2023-03-01T06:08:07;100496.06;;;7.07;75.88
74958;BME280;63741;42.624;26.276;2023-03-01T06:10:33;100500.25;;;7.12;76.32
74958;BME280;63741;42.624;26.276;2023-03-01T06:13:00;100504.22;;;7.20;76.80
74958;BME280;63741;42.624;26.276;2023-03-01T06:15:27;100494.75;;;7.16;77.11
74958;BME280;63741;42.624;26.276;2023-03-01T06:17:55;100491.13;;;7.36;76.73
74958;BME280;63741;42.624;26.276;2023-03-01T06:20:27;100493.09;;;7.32;76.30
74958;BME280;63741;42.624;26.276;2023-03-01T06:22:54;100489.97;;;7.42;76.83
74958;BME280;63741;42.624;26.276;2023-03-01T06:25:23;100498.03;;;7.39;76.84
74958;BME280;63741;42.624;26.276;2023-03-01T06:27:50;100495.53;;;7.53;75.62
74958;BME280;63741;42.624;26.276;2023-03-01T06:30:20;100499.63;;;7.58;76.04
74958;BME280;63741;42.624;26.276;2023-03-01T06:32:48;100498.06;;;7.72;74.50
74958;BME280;63741;42.624;26.276;2023-03-01T06:35:16;100498.25;;;7.51;74.39
74958;BME280;63741;42.624;26.276;2023-03-01T06:37:46;100495.25;;;7.42;75.02
74958;BME280;63741;42.624;26.276;2023-03-01T06:40:14;100497.09;;;7.57;74.12
74958;BME280;63741;42.624;26.276;2023-03-01T06:42:43;100499.88;;;7.54;74.48
74958;BME280;63741;42.624;26.276;2023-03-01T06:45:10;100496.63;;;7.49;74.83
74958;BME280;63741;42.624;26.276;2023-03-01T06:47:38;100496.16;;;7.41;73.48
74958;BME280;63741;42.624;26.276;2023-03-01T06:50:05;100493.75;;;7.36;74.08
74958;BME280;63741;42.624;26.276;2023-03-01T06:52:32;100497.09;;;7.40;73.70
74958;BME280;63741;42.624;26.276;2023-03-01T06:55:00;100500.03;;;7.33;73.88
74958;BME280;63741;42.624;26.276;2023-03-01T06:57:27;100500.97;;;7.32;74.39
74958;BME280;63741;42.624;26.276;2023-03-01T06:59:54;100497.41;;;7.33;74.22
74958;BME280;63741;42.624;26.276;2023-03-01T07:02:21;100495.41;;;7.39;75.01
74958;BME280;63741;42.624;26.276;2023-03-01T07:04:50;100489.19;;;7.40;74.80
74958;BME280;63741;42.624;26.276;2023-03-01T07:07:17;100490.97;;;7.39;75.15
74958;BME280;63741;42.624;26.276;2023-03-01T07:09:45;100496.00;;;7.44;73.88
74958;BME280;63741;42.624;26.276;2023-03-01T07:12:12;100498.34;;;7.32;74.65
74958;BME280;63741;42.624;26.276;2023-03-01T07:14:39;100489.56;;;7.32;74.44
74958;BME280;63741;42.624;26.276;2023-03-01T07:17:06;100492.28;;;7.13;74.78
74958;BME280;63741;42.624;26.276;2023-03-01T07:19:33;100494.69;;;7.35;74.50
74958;BME280;63741;42.624;26.276;2023-03-01T07:21:59;100499.34;;;7.47;73.96
74958;BME280;63741;42.624;26.276;2023-03-01T07:24:26;100497.31;;;7.52;74.04
74958;BME280;63741;42.624;26.276;2023-03-01T07:26:53;100499.97;;;7.52;73.61
74958;BME280;63741;42.624;26.276;2023-03-01T07:29:20;100496.63;;;7.49;73.70
74958;BME280;63741;42.624;26.276;2023-03-01T07:31:47;100496.25;;;7.56;73.93
74958;BME280;63741;42.624;26.276;2023-03-01T07:34:14;100504.75;;;7.62;73.38
74958;BME280;63741;42.624;26.276;2023-03-01T07:36:41;100499.09;;;7.52;74.64
74958;BME280;63741;42.624;26.276;2023-03-01T07:39:10;100499.25;;;7.49;73.66
74958;BME280;63741;42.624;26.276;2023-03-01T07:41:38;100493.13;;;7.48;73.69
74958;BME280;63741;42.624;26.276;2023-03-01T07:44:05;100495.84;;;7.81;73.77
74958;BME280;63741;42.624;26.276;2023-03-01T07:46:32;100495.50;;;7.88;73.19
74958;BME280;63741;42.624;26.276;2023-03-01T07:48:59;100490.69;;;7.96;72.87
74958;BME280;63741;42.624;26.276;2023-03-01T07:51:26;100494.16;;;7.96;72.07
74958;BME280;63741;42.624;26.276;2023-03-01T07:53:53;100490.75;;;7.94;72.05
74958;BME280;63741;42.624;26.276;2023-03-01T07:56:20;100488.50;;;8.04;71.76
74958;BME280;63741;42.624;26.276;2023-03-01T07:58:48;100496.88;;;7.95;71.82
74958;BME280;63741;42.624;26.276;2023-03-01T08:01:18;100492.97;;;8.02;71.63
74958;BME280;63741;42.624;26.276;2023-03-01T08:03:46;100493.09;;;8.16;71.99
74958;BME280;63741;42.624;26.276;2023-03-01T08:06:14;100486.72;;;8.20;72.31
74958;BME280;63741;42.624;26.276;2023-03-01T08:08:42;100492.97;;;8.02;72.26
74958;BME280;63741;42.624;26.276;2023-03-01T08:11:14;100497.56;;;7.98;73.09
74958;BME280;63741;42.624;26.276;2023-03-01T08:13:42;100498.16;;;8.03;72.53
74958;BME280;63741;42.624;26.276;2023-03-01T08:16:14;100503.75;;;7.97;71.41
74958;BME280;63741;42.624;26.276;2023-03-01T08:18:42;100491.97;;;8.04;72.06
74958;BME280;63741;42.624;26.276;2023-03-01T08:21:11;100488.16;;;8.10;71.22
74958;BME280;63741;42.624;26.276;2023-03-01T08:23:40;100491.06;;;7.88;73.05
74958;BME280;63741;42.624;26.276;2023-03-01T08:26:15;100489.59;;;8.00;72.57
74958;BME280;63741;42.624;26.276;2023-03-01T08:28:43;100487.00;;;7.98;70.91
74958;BME280;63741;42.624;26.276;2023-03-01T08:31:21;100492.34;;;8.14;72.58
74958;BME280;63741;42.624;26.276;2023-03-01T08:33:51;100488.50;;;8.04;72.40
74958;BME280;63741;42.624;26.276;2023-03-01T08:36:33;100493.13;;;7.99;71.26
74958;BME280;63741;42.624;26.276;2023-03-01T08:39:01;100484.91;;;8.05;71.62
74958;BME280;63741;42.624;26.276;2023-03-01T08:41:28;100484.75;;;8.08;71.68
74958;BME280;63741;42.624;26.276;2023-03-01T08:43:55;100484.13;;;8.03;71.03
74958;BME280;63741;42.624;26.276;2023-03-01T08:46:33;100480.75;;;8.17;72.23
74958;BME280;63741;42.624;26.276;2023-03-01T08:49:04;100479.06;;;8.16;71.81
74958;BME280;63741;42.624;26.276;2023-03-01T08:51:31;100484.13;;;8.03;71.75
74958;BME280;63741;42.624;26.276;2023-03-01T08:54:10;100486.84;;;8.01;71.93
74958;BME280;63741;42.624;26.276;2023-03-01T08:56:38;100488.19;;;7.93;72.17
74958;BME280;63741;42.624;26.276;2023-03-01T08:59:05;100483.03;;;7.91;71.97
74958;BME280;63741;42.624;26.276;2023-03-01T09:01:32;100481.16;;;7.93;72.22
74958;BME280;63741;42.624;26.276;2023-03-01T09:03:59;100483.97;;;8.06;71.04
74958;BME280;63741;42.624;26.276;2023-03-01T09:06:26;100481.94;;;8.11;72.25
74958;BME280;63741;42.624;26.276;2023-03-01T09:08:56;100473.47;;;8.22;72.58
74958;BME280;63741;42.624;26.276;2023-03-01T09:11:23;100477.56;;;8.27;70.85
74958;BME280;63741;42.624;26.276;2023-03-01T09:13:50;100477.03;;;8.21;71.09
74958;BME280;63741;42.624;26.276;2023-03-01T09:16:19;100471.66;;;8.06;72.52
74958;BME280;63741;42.624;26.276;2023-03-01T09:18:52;100470.16;;;8.18;71.77
74958;BME280;63741;42.624;26.276;2023-03-01T09:21:20;100473.13;;;8.28;71.00
74958;BME280;63741;42.624;26.276;2023-03-01T09:24:06;100481.41;;;8.38;71.01
74958;BME280;63741;42.624;26.276;2023-03-01T09:26:33;100477.00;;;8.38;70.67
74958;BME280;63741;42.624;26.276;2023-03-01T09:28:59;100480.84;;;8.48;70.42
74958;BME280;63741;42.624;26.276;2023-03-01T09:31:26;100479.09;;;8.31;71.09
74958;BME280;63741;42.624;26.276;2023-03-01T09:33:53;100474.81;;;8.13;71.60
74958;BME280;63741;42.624;26.276;2023-03-01T09:36:23;100469.66;;;8.27;70.46
74958;BME280;63741;42.624;26.276;2023-03-01T09:38:51;100486.72;;;8.20;72.37
74958;BME280;63741;42.624;26.276;2023-03-01T09:49:47;100470.59;;;8.26;71.55
74958;BME280;63741;42.624;26.276;2023-03-01T09:52:29;100468.53;;;8.16;72.05
74958;BME280;63741;42.624;26.276;2023-03-01T09:55:00;100472.69;;;8.20;71.81
74958;BME280;63741;42.624;26.276;2023-03-01T09:57:34;100472.94;;;8.15;71.93
74958;BME280;63741;42.624;26.276;2023-03-01T10:05:48;100480.50;;;8.05;71.74
74958;BME280;63741;42.624;26.276;2023-03-01T10:08:36;100473.09;;;7.96;72.32
74958;BME280;63741;42.624;26.276;2023-03-01T10:11:22;100463.56;;;7.94;72.44
74958;BME280;63741;42.624;26.276;2023-03-01T10:19:31;100473.53;;;8.04;72.74
74958;BME280;63741;42.624;26.276;2023-03-01T10:22:16;100466.97;;;7.96;72.49
74958;BME280;63741;42.624;26.276;2023-03-01T10:24:43;100466.72;;;7.67;72.76
74958;BME280;63741;42.624;26.276;2023-03-01T10:27:37;100460.06;;;7.77;73.34
74958;BME280;63741;42.624;26.276;2023-03-01T10:30:20;100455.84;;;7.91;72.62
74958;BME280;63741;42.624;26.276;2023-03-01T10:32:49;100463.56;;;7.94;74.02
74958;BME280;63741;42.624;26.276;2023-03-01T10:35:24;100458.78;;;7.84;73.08
74958;BME280;63741;42.624;26.276;2023-03-01T10:38:07;100458.63;;;7.88;72.94
74958;BME280;63741;42.624;26.276;2023-03-01T10:40:36;100449.31;;;8.14;73.33
74958;BME280;63741;42.624;26.276;2023-03-01T10:43:05;100452.53;;;8.03;72.44
74958;BME280;63741;42.624;26.276;2023-03-01T10:45:37;100452.31;;;8.23;70.91
74958;BME280;63741;42.624;26.276;2023-03-01T10:48:26;100442.00;;;8.34;71.50
74958;BME280;63741;42.624;26.276;2023-03-01T10:53:31;100439.31;;;8.52;71.74
74958;BME280;63741;42.624;26.276;2023-03-01T10:58:34;100431.50;;;8.66;69.83
74958;BME280;63741;42.624;26.276;2023-03-01T11:04:22;100430.34;;;8.70;70.75
74958;BME280;63741;42.624;26.276;2023-03-01T11:06:58;100420.22;;;8.78;69.54
74958;BME280;63741;42.624;26.276;2023-03-01T11:09:26;100414.38;;;8.73;70.02
74958;BME280;63741;42.624;26.276;2023-03-01T11:12:00;100413.88;;;8.51;70.44
74958;BME280;63741;42.624;26.276;2023-03-01T11:14:35;100405.97;;;8.51;70.53
74958;BME280;63741;42.624;26.276;2023-03-01T11:17:15;100406.25;;;8.46;70.03
74958;BME280;63741;42.624;26.276;2023-03-01T11:22:50;100402.50;;;8.50;70.37
74958;BME280;63741;42.624;26.276;2023-03-01T11:25:19;100402.72;;;8.61;69.53
74958;BME280;63741;42.624;26.276;2023-03-01T11:27:47;100398.97;;;8.66;68.70
74958;BME280;63741;42.624;26.276;2023-03-01T11:30:38;100389.72;;;8.58;70.88
74958;BME280;63741;42.624;26.276;2023-03-01T11:33:20;100395.06;;;8.73;69.58
74958;BME280;63741;42.624;26.276;2023-03-01T11:39:10;100380.59;;;8.64;70.57
74958;BME280;63741;42.624;26.276;2023-03-01T11:41:40;100371.59;;;8.68;69.32
74958;BME280;63741;42.624;26.276;2023-03-01T11:44:28;100364.78;;;8.94;68.71
74958;BME280;63741;42.624;26.276;2023-03-01T11:47:07;100361.25;;;8.79;70.10
74958;BME280;63741;42.624;26.276;2023-03-01T11:49:41;100364.97;;;8.91;69.49
74958;BME280;63741;42.624;26.276;2023-03-01T11:54:57;100368.81;;;8.85;68.84
74958;BME280;63741;42.624;26.276;2023-03-01T12:12:03;100359.50;;;8.64;70.89
74958;BME280;63741;42.624;26.276;2023-03-01T12:20:54;100354.09;;;8.51;72.18
74958;BME280;63741;42.624;26.276;2023-03-01T12:37:43;100346.47;;;8.15;72.58
74958;BME280;63741;42.624;26.276;2023-03-01T12:40:36;100342.28;;;8.11;72.56
74958;BME280;63741;42.624;26.276;2023-03-01T12:43:40;100339.47;;;8.30;73.44
74958;BME280;63741;42.624;26.276;2023-03-01T12:49:21;100344.09;;;8.10;73.82
74958;BME280;63741;42.624;26.276;2023-03-01T12:52:20;100350.72;;;8.18;72.63
74958;BME280;63741;42.624;26.276;2023-03-01T12:54:51;100342.63;;;8.21;73.60
74958;BME280;63741;42.624;26.276;2023-03-01T13:00:35;100332.06;;;8.52;71.70
74958;BME280;63741;42.624;26.276;2023-03-01T13:06:00;100335.72;;;8.34;73.33
74958;BME280;63741;42.624;26.276;2023-03-01T13:08:39;100334.47;;;8.41;73.00
74958;BME280;63741;42.624;26.276;2023-03-01T13:11:22;100340.50;;;8.27;71.83
74958;BME280;63741;42.624;26.276;2023-03-01T13:13:49;100333.53;;;8.26;72.93
74958;BME280;63741;42.624;26.276;2023-03-01T13:19:13;100332.84;;;8.39;72.01
74958;BME280;63741;42.624;26.276;2023-03-01T13:21:43;100337.72;;;8.30;72.63
74958;BME280;63741;42.624;26.276;2023-03-01T13:24:37;100334.97;;;8.32;72.90
74958;BME280;63741;42.624;26.276;2023-03-01T13:32:31;100355.28;;;7.98;74.45
74958;BME280;63741;42.624;26.276;2023-03-01T13:37:46;100340.00;;;7.89;73.43
74958;BME280;63741;42.624;26.276;2023-03-01T13:42:53;100345.59;;;7.99;73.70
74958;BME280;63741;42.624;26.276;2023-03-01T13:45:41;100341.03;;;8.02;74.82
74958;BME280;63741;42.624;26.276;2023-03-01T13:48:15;100349.19;;;7.82;74.07
74958;BME280;63741;42.624;26.276;2023-03-01T13:50:48;100341.00;;;7.71;74.57
74958;BME280;63741;42.624;26.276;2023-03-01T13:53:19;100343.09;;;7.48;75.16
74958;BME280;63741;42.624;26.276;2023-03-01T13:55:55;100337.13;;;7.45;75.46
74958;BME280;63741;42.624;26.276;2023-03-01T13:58:28;100335.09;;;7.50;75.25
74958;BME280;63741;42.624;26.276;2023-03-01T14:01:07;100325.94;;;7.41;74.85
74958;BME280;63741;42.624;26.276;2023-03-01T14:03:41;100330.88;;;7.47;75.31
74958;BME280;63741;42.624;26.276;2023-03-01T14:06:16;100333.41;;;7.49;74.53
74958;BME280;63741;42.624;26.276;2023-03-01T14:08:47;100326.41;;;7.32;76.56
74958;BME280;63741;42.624;26.276;2023-03-01T14:11:31;100331.16;;;7.25;75.28
74958;BME280;63741;42.624;26.276;2023-03-01T14:14:23;100330.41;;;7.23;76.67
74958;BME280;63741;42.624;26.276;2023-03-01T14:19:29;100331.03;;;7.11;75.94
74958;BME280;63741;42.624;26.276;2023-03-01T14:22:26;100331.78;;;7.30;76.63
74958;BME280;63741;42.624;26.276;2023-03-01T14:24:59;100326.63;;;7.45;76.01
74958;BME280;63741;42.624;26.276;2023-03-01T14:27:31;100336.66;;;7.21;75.72
74958;BME280;63741;42.624;26.276;2023-03-01T14:30:02;100327.69;;;7.25;76.42
74958;BME280;63741;42.624;26.276;2023-03-01T14:32:31;100330.78;;;7.33;75.14
74958;BME280;63741;42.624;26.276;2023-03-01T14:34:59;100343.25;;;7.12;76.61
74958;BME280;63741;42.624;26.276;2023-03-01T14:37:29;100335.59;;;7.07;76.25
74958;BME280;63741;42.624;26.276;2023-03-01T14:39:58;100347.44;;;6.81;77.19
74958;BME280;63741;42.624;26.276;2023-03-01T14:42:28;100339.28;;;6.70;78.16
74958;BME280;63741;42.624;26.276;2023-03-01T14:44:57;100340.63;;;6.60;77.98
74958;BME280;63741;42.624;26.276;2023-03-01T14:47:32;100352.53;;;6.50;79.07
74958;BME280;63741;42.624;26.276;2023-03-01T14:50:25;100330.97;;;6.43;78.63
74958;BME280;63741;42.624;26.276;2023-03-01T14:52:59;100346.59;;;6.64;78.95
74958;BME280;63741;42.624;26.276;2023-03-01T14:55:46;100344.34;;;6.56;77.55
74958;BME280;63741;42.624;26.276;2023-03-01T14:58:17;100343.88;;;6.65;79.02
74958;BME280;63741;42.624;26.276;2023-03-01T15:00:57;100340.97;;;6.71;78.57
74958;BME280;63741;42.624;26.276;2023-03-01T15:03:30;100333.22;;;6.86;77.45
74958;BME280;63741;42.624;26.276;2023-03-01T15:06:00;100341.22;;;6.84;77.94